createdAt,value
2022-08-17T00:01:52.051Z,19.70
2022-08-17T00:04:19.857Z,19.25
2022-08-17T00:06:48.651Z,18.58
2022-08-17T00:09:18.428Z,18.33
2022-08-17T00:12:40.798Z,20.88
2022-08-17T00:14:36.444Z,19.98
2022-08-17T00:17:06.860Z,19.93
2022-08-17T00:19:34.115Z,20.42
2022-08-17T00:22:35.265Z,21.47
2022-08-17T00:24:50.051Z,18.02
2022-08-17T00:27:17.271Z,16.77
2022-08-17T00:29:45.880Z,14.90
2022-08-17T00:33:11.652Z,14.85
2022-08-17T00:35:06.726Z,13.90
2022-08-17T00:37:33.700Z,13.50
2022-08-17T00:40:00.694Z,15.77
2022-08-17T00:42:30.939Z,15.75
2022-08-17T00:44:58.574Z,16.75
2022-08-17T00:47:25.715Z,14.63
2022-08-17T00:49:52.766Z,14.70
2022-08-17T00:52:24.879Z,17.40
2022-08-17T00:54:54.862Z,12.75
2022-08-17T00:57:32.867Z,15.27
2022-08-17T01:02:42.800Z,13.60
2022-08-17T01:05:18.644Z,13.48
2022-08-17T01:07:48.339Z,13.68
2022-08-17T01:11:00.477Z,13.75
2022-08-17T01:13:03.644Z,13.57
2022-08-17T01:15:31.832Z,11.55
2022-08-17T01:17:58.715Z,14.82
2022-08-17T01:20:25.493Z,15.18
2022-08-17T01:22:52.615Z,17.48
2022-08-17T01:25:20.374Z,15.02
2022-08-17T01:27:47.947Z,16.48
2022-08-17T01:30:58.911Z,12.45
2022-08-17T01:35:29.313Z,13.13
2022-08-17T01:37:56.092Z,15.25
2022-08-17T01:40:48.366Z,16.95
2022-08-17T01:43:34.569Z,15.32
2022-08-17T01:46:03.472Z,16.35
2022-08-17T01:48:33.721Z,14.40
2022-08-17T01:51:00.924Z,13.77
2022-08-17T01:53:36.204Z,14.48
2022-08-17T01:56:11.256Z,17.33
2022-08-17T01:58:39.791Z,12.95
2022-08-17T02:01:08.526Z,14.90
2022-08-17T02:03:36.691Z,14.43
2022-08-17T02:06:05.378Z,16.70
2022-08-17T02:08:39.130Z,15.63
2022-08-17T02:11:22.545Z,12.45
2022-08-17T02:13:58.320Z,18.65
2022-08-17T02:16:36.859Z,14.35
2022-08-17T02:19:12.534Z,14.73
2022-08-17T02:21:40.731Z,14.65
2022-08-17T02:26:35.859Z,15.05
2022-08-17T02:29:04.089Z,15.93
2022-08-17T02:31:31.285Z,16.77
2022-08-17T02:34:03.993Z,16.13
2022-08-17T02:36:36.103Z,11.70
2022-08-17T02:39:06.181Z,15.77
2022-08-17T02:41:33.154Z,14.93
2022-08-17T02:44:00.688Z,13.98
2022-08-17T02:46:28.334Z,14.82
2022-08-17T02:48:55.198Z,15.48
2022-08-17T02:51:22.389Z,17.77
2022-08-17T02:53:49.218Z,13.48
2022-08-17T02:56:16.206Z,13.63
2022-08-17T02:58:43.032Z,13.30
2022-08-17T03:01:10.875Z,15.63
2022-08-17T03:03:39.009Z,16.25
2022-08-17T03:08:33.390Z,17.27
2022-08-17T03:11:00.526Z,14.67
2022-08-17T03:13:27.621Z,16.23
2022-08-17T03:15:54.529Z,17.02
2022-08-17T03:18:24.804Z,16.73
2022-08-17T03:20:57.983Z,15.82
2022-08-17T03:23:25.808Z,14.90
2022-08-17T03:25:55.145Z,20.55
2022-08-17T03:28:23.483Z,15.80
2022-08-17T03:30:51.410Z,15.05
2022-08-17T03:33:19.211Z,14.45
2022-08-17T03:35:46.467Z,14.02
2022-08-17T03:38:15.035Z,18.27
2022-08-17T03:40:56.674Z,15.77
2022-08-17T03:43:30.906Z,17.02
2022-08-17T03:46:34.723Z,17.67
2022-08-17T03:49:25.470Z,23.88
2022-08-17T03:52:12.877Z,18.35
2022-08-17T03:54:59.026Z,18.88
2022-08-17T03:57:26.421Z,15.70
2022-08-17T03:59:54.518Z,16.15
2022-08-17T04:04:52.678Z,15.88
2022-08-17T04:07:22.256Z,17.67
2022-08-17T04:09:49.401Z,15.90
2022-08-17T04:12:18.635Z,19.30
2022-08-17T04:14:52.854Z,19.17
2022-08-17T04:17:25.883Z,18.20
2022-08-17T04:19:53.692Z,17.65
2022-08-17T04:22:30.292Z,17.02
2022-08-17T04:25:09.375Z,15.25
2022-08-17T04:27:36.413Z,22.25
2022-08-17T04:30:07.249Z,19.15
2022-08-17T04:33:09.880Z,17.65
2022-08-17T04:35:40.243Z,15.70
2022-08-17T04:38:08.623Z,17.77
2022-08-17T04:40:54.177Z,16.80
2022-08-17T04:43:24.094Z,19.23
2022-08-17T04:45:57.370Z,19.63
2022-08-17T04:48:47.817Z,18.58
2022-08-17T04:51:24.657Z,18.92
2022-08-17T04:53:54.435Z,17.52
2022-08-17T04:56:25.116Z,18.30
2022-08-17T04:58:54.433Z,19.00
2022-08-17T05:01:24.754Z,21.33
2022-08-17T05:03:58.978Z,20.85
2022-08-17T05:06:27.836Z,21.83
2022-08-17T05:08:55.519Z,20.55
2022-08-17T05:11:23.774Z,20.10
2022-08-17T05:13:50.654Z,23.70
2022-08-17T05:16:18.452Z,21.73
2022-08-17T05:18:45.515Z,21.98
2022-08-17T05:21:12.863Z,20.02
2022-08-17T05:23:43.087Z,25.67
2022-08-17T05:26:19.827Z,22.65
2022-08-17T05:28:52.784Z,18.45
2022-08-17T05:31:21.195Z,24.15
2022-08-17T05:33:49.484Z,23.17
2022-08-17T05:36:42.079Z,20.15
2022-08-17T05:39:03.971Z,20.98
2022-08-17T05:41:30.764Z,19.03
2022-08-17T05:43:57.583Z,18.95
2022-08-17T05:46:28.740Z,19.52
2022-08-17T05:49:03.456Z,17.67
2022-08-17T05:51:55.721Z,17.50
2022-08-17T05:54:48.384Z,16.42
2022-08-17T05:57:17.862Z,16.25
2022-08-17T06:00:14.517Z,18.30
2022-08-17T06:03:09.937Z,16.67
2022-08-17T06:06:15.691Z,18.58
2022-08-17T06:09:22.815Z,16.20
2022-08-17T06:11:55.345Z,15.48
2022-08-17T06:14:40.733Z,15.30
2022-08-17T06:17:12.739Z,15.15
2022-08-17T06:19:51.593Z,15.32
2022-08-17T06:22:22.029Z,14.52
2022-08-17T06:24:54.216Z,15.25
2022-08-17T06:27:41.940Z,19.90
2022-08-17T06:30:16.920Z,16.80
2022-08-17T06:32:46.275Z,14.82
2022-08-17T06:35:17.408Z,17.40
2022-08-17T06:38:08.553Z,15.85
2022-08-17T06:41:07.492Z,13.95
2022-08-17T06:43:59.036Z,16.73
2022-08-17T06:46:35.958Z,14.80
2022-08-17T06:49:25.922Z,13.98
2022-08-17T06:51:58.219Z,14.45
2022-08-17T06:54:45.859Z,13.55
2022-08-17T06:57:15.241Z,17.20
2022-08-17T06:59:55.163Z,15.23
2022-08-17T07:02:52.573Z,15.77
2022-08-17T07:05:33.892Z,13.85
2022-08-17T07:08:30.462Z,13.85
2022-08-17T07:11:08.699Z,16.13
2022-08-17T07:13:57.465Z,12.60
2022-08-17T07:16:30.841Z,14.02
2022-08-17T07:18:59.458Z,14.88
2022-08-17T07:21:34.288Z,15.15
2022-08-17T07:24:28.104Z,12.02
2022-08-17T07:27:08.142Z,15.35
2022-08-17T07:29:41.367Z,11.98
2022-08-17T07:32:09.987Z,15.50
2022-08-17T07:35:10.723Z,15.05
2022-08-17T07:37:40.162Z,11.73
2022-08-17T07:40:21.065Z,13.00
2022-08-17T07:43:11.495Z,14.13
2022-08-17T07:46:16.360Z,12.93
2022-08-17T07:48:49.681Z,11.65
2022-08-17T07:51:27.118Z,10.27
2022-08-17T07:54:18.489Z,9.57
2022-08-17T07:57:01.488Z,23.40
2022-08-17T07:59:41.813Z,15.40
2022-08-17T08:02:21.865Z,9.50
2022-08-17T08:05:49.785Z,9.05
2022-08-17T08:08:30.180Z,10.27
2022-08-17T08:11:07.161Z,10.50
2022-08-17T08:13:35.234Z,11.25
2022-08-17T08:18:55.741Z,8.50
2022-08-17T08:21:48.734Z,11.80
2022-08-17T08:24:41.296Z,8.57
2022-08-17T08:27:29.092Z,9.68
2022-08-17T08:32:54.101Z,8.35
2022-08-17T08:35:44.167Z,7.63
2022-08-17T08:38:39.249Z,13.73
2022-08-17T08:41:26.376Z,7.78
2022-08-17T08:44:13.566Z,7.20
2022-08-17T08:47:23.213Z,9.30
2022-08-17T08:50:37.120Z,8.55
2022-08-17T08:53:14.426Z,8.25
2022-08-17T08:56:00.591Z,10.13
2022-08-17T08:59:01.263Z,7.97
2022-08-17T09:01:45.032Z,10.20
2022-08-17T09:05:02.594Z,10.65
2022-08-17T09:07:41.365Z,15.27
2022-08-17T09:10:25.984Z,7.25
2022-08-17T09:13:14.943Z,10.07
2022-08-17T09:15:48.161Z,9.15
2022-08-17T09:19:00.150Z,12.38
2022-08-17T09:21:18.199Z,8.55
2022-08-17T09:24:06.291Z,8.82
2022-08-17T09:27:00.584Z,9.20
2022-08-17T09:29:35.100Z,9.68
2022-08-17T09:32:14.876Z,7.40
2022-08-17T09:34:54.870Z,6.55
2022-08-17T09:37:30.954Z,6.72
2022-08-17T09:40:21.229Z,8.43
2022-08-17T09:42:53.419Z,6.13
2022-08-17T09:45:42.837Z,6.30
2022-08-17T09:48:23.430Z,8.07
2022-08-17T09:51:13.780Z,5.82
2022-08-17T09:53:41.455Z,7.00
2022-08-17T09:56:20.217Z,6.25
2022-08-17T09:59:22.253Z,7.63
2022-08-17T10:02:05.951Z,7.05
2022-08-17T10:04:40.857Z,8.48
2022-08-17T10:07:13.208Z,8.60
2022-08-17T10:10:18.014Z,8.15
2022-08-17T10:13:20.854Z,7.20
2022-08-17T10:16:03.456Z,6.20
2022-08-17T10:19:08.225Z,13.48
2022-08-17T10:22:00.679Z,7.22
2022-08-17T10:25:21.560Z,6.18
2022-08-17T10:27:52.663Z,8.60
2022-08-17T10:30:22.799Z,9.60
2022-08-17T10:32:56.934Z,7.72
2022-08-17T10:35:47.520Z,8.93
2022-08-17T10:38:37.058Z,7.47
2022-08-17T10:41:24.183Z,8.60
2022-08-17T10:44:40.456Z,9.57
2022-08-17T10:46:54.333Z,8.20
2022-08-17T10:49:21.205Z,5.90
2022-08-17T10:52:00.203Z,6.28
2022-08-17T10:54:46.947Z,8.73
2022-08-17T10:57:39.201Z,6.20
2022-08-17T11:00:08.874Z,7.72
2022-08-17T11:02:54.949Z,5.75
2022-08-17T11:05:44.233Z,7.38
2022-08-17T11:08:32.051Z,5.78
2022-08-17T11:13:54.698Z,14.90
2022-08-17T11:16:53.705Z,5.60
2022-08-17T11:19:32.143Z,8.23
2022-08-17T11:22:31.304Z,5.25
2022-08-17T11:25:16.651Z,5.47
2022-08-17T11:27:45.713Z,5.32
2022-08-17T11:30:34.774Z,6.80
2022-08-17T11:33:34.091Z,9.18
2022-08-17T11:36:24.408Z,7.05
2022-08-17T11:39:06.236Z,6.15
2022-08-17T11:42:12.294Z,7.93
2022-08-17T11:44:39.097Z,5.07
2022-08-17T11:48:23.690Z,8.60
2022-08-17T11:51:33.719Z,8.43
2022-08-17T11:54:34.451Z,4.05
2022-08-17T11:57:26.450Z,4.75
2022-08-17T11:59:55.681Z,9.00
2022-08-17T12:02:31.459Z,7.53
2022-08-17T12:05:17.474Z,5.53
2022-08-17T12:07:52.124Z,5.55
2022-08-17T12:10:23.516Z,5.35
2022-08-17T12:12:54.048Z,10.30
2022-08-17T12:15:28.779Z,5.78
2022-08-17T12:17:57.920Z,6.78
2022-08-17T12:20:38.378Z,13.55
2022-08-17T12:23:11.114Z,18.15
2022-08-17T12:25:57.144Z,7.03
2022-08-17T12:28:33.550Z,4.18
2022-08-17T12:31:13.643Z,7.38
2022-08-17T12:33:44.422Z,6.30
2022-08-17T12:36:15.979Z,5.68
2022-08-17T12:39:14.564Z,6.40
2022-08-17T12:41:51.111Z,4.63
2022-08-17T12:44:25.190Z,5.55
2022-08-17T12:47:21.904Z,5.28
2022-08-17T12:49:52.253Z,5.00
2022-08-17T12:52:32.836Z,4.95
2022-08-17T12:55:06.970Z,4.88
2022-08-17T12:57:39.737Z,5.60
2022-08-17T13:00:30.336Z,7.63
2022-08-17T13:03:36.600Z,9.07
2022-08-17T13:06:09.527Z,6.88
2022-08-17T13:08:48.097Z,7.35
2022-08-17T13:11:16.112Z,6.43
2022-08-17T13:13:46.869Z,6.30
2022-08-17T13:16:14.453Z,4.30
2022-08-17T13:18:43.008Z,6.60
2022-08-17T13:21:26.979Z,5.78
2022-08-17T13:24:17.353Z,4.40
2022-08-17T13:26:57.320Z,5.88
2022-08-17T13:29:28.983Z,7.55
2022-08-17T13:32:13.468Z,9.70
2022-08-17T13:35:12.433Z,6.22
2022-08-17T13:37:37.482Z,5.15
2022-08-17T13:40:10.762Z,4.45
2022-08-17T13:42:51.799Z,6.82
2022-08-17T13:45:38.866Z,6.10
2022-08-17T13:48:06.474Z,5.13
2022-08-17T13:50:33.574Z,8.53
2022-08-17T13:53:00.656Z,5.50
2022-08-17T13:55:29.520Z,5.67
2022-08-17T13:58:03.898Z,10.43
2022-08-17T14:03:04.325Z,7.35
2022-08-17T14:05:32.140Z,5.93
2022-08-17T14:08:02.516Z,5.45
2022-08-17T14:10:36.422Z,4.93
2022-08-17T14:13:03.775Z,7.13
2022-08-17T14:15:54.966Z,6.03
2022-08-17T14:18:18.993Z,8.17
2022-08-17T14:21:08.362Z,5.07
2022-08-17T14:23:36.872Z,6.30
2022-08-17T14:26:03.921Z,7.57
2022-08-17T14:28:30.821Z,7.83
2022-08-17T14:31:00.355Z,6.35
2022-08-17T14:33:28.384Z,4.90
2022-08-17T14:35:57.528Z,9.40
2022-08-17T14:38:24.674Z,5.63
2022-08-17T14:40:51.940Z,5.77
2022-08-17T14:43:18.860Z,8.00
2022-08-17T14:45:45.627Z,5.88
2022-08-17T14:48:12.815Z,7.05
2022-08-17T14:50:41.927Z,6.43
2022-08-17T14:53:15.067Z,6.95
2022-08-17T14:55:42.569Z,6.15
2022-08-17T14:58:09.493Z,6.10
2022-08-17T15:00:36.892Z,6.32
2022-08-17T15:03:04.062Z,6.07
2022-08-17T15:05:34.239Z,5.40
2022-08-17T15:08:02.436Z,5.47
2022-08-17T15:10:30.193Z,7.47
2022-08-17T15:12:57.790Z,6.35
2022-08-17T15:15:24.959Z,4.20
2022-08-17T15:17:52.218Z,6.13
2022-08-17T15:20:22.875Z,5.95
2022-08-17T15:22:50.715Z,5.70
2022-08-17T15:25:18.986Z,5.38
2022-08-17T15:27:46.292Z,6.55
2022-08-17T15:30:13.566Z,7.43
2022-08-17T15:32:51.196Z,5.00
2022-08-17T15:35:27.255Z,6.88
2022-08-17T15:38:11.269Z,8.18
2022-08-17T15:40:51.018Z,5.63
2022-08-17T15:43:27.931Z,5.47
2022-08-17T15:46:17.290Z,5.15
2022-08-17T15:48:47.125Z,5.72
2022-08-17T15:51:24.593Z,8.18
2022-08-17T15:54:17.115Z,5.00
2022-08-17T15:56:49.499Z,5.55
2022-08-17T15:59:16.335Z,7.07
2022-08-17T16:03:06.206Z,11.85
2022-08-17T16:04:31.840Z,6.78
2022-08-17T16:07:00.007Z,6.63
2022-08-17T16:11:56.142Z,6.75
2022-08-17T16:14:32.381Z,6.15
2022-08-17T16:17:03.140Z,5.18
2022-08-17T16:21:56.951Z,7.73
2022-08-17T16:24:23.721Z,6.85
2022-08-17T16:26:50.688Z,8.70
2022-08-17T16:29:17.844Z,7.32
2022-08-17T16:31:44.608Z,6.17
2022-08-17T16:34:18.101Z,5.90
2022-08-17T16:36:51.752Z,7.72
2022-08-17T16:41:57.455Z,5.97
2022-08-17T16:46:52.641Z,5.82
2022-08-17T16:49:35.658Z,6.85
2022-08-17T16:52:06.183Z,9.38
2022-08-17T16:54:35.458Z,7.03
2022-08-17T16:57:05.057Z,7.18
2022-08-17T16:59:40.962Z,7.43
2022-08-17T17:02:12.560Z,8.15
2022-08-17T17:04:49.371Z,7.70
2022-08-17T17:07:43.720Z,6.95
2022-08-17T17:10:15.036Z,7.93
2022-08-17T17:13:02.090Z,8.07
2022-08-17T17:15:39.572Z,6.50
2022-08-17T17:18:11.117Z,7.32
2022-08-17T17:20:49.783Z,7.93
2022-08-17T17:23:36.241Z,7.00
2022-08-17T17:29:04.340Z,8.50
2022-08-17T17:31:45.276Z,7.60
2022-08-17T17:34:16.571Z,7.60
2022-08-17T17:36:51.920Z,6.45
2022-08-17T17:39:31.884Z,8.63
2022-08-17T17:42:03.578Z,7.18
2022-08-17T17:44:56.584Z,9.13
2022-08-17T17:47:23.630Z,6.80
2022-08-17T17:49:50.606Z,7.23
2022-08-17T17:52:38.204Z,7.75
2022-08-17T17:55:18.450Z,8.25
2022-08-17T17:58:11.581Z,7.75
2022-08-17T18:01:16.557Z,8.27
2022-08-17T18:03:59.030Z,8.05
2022-08-17T18:06:45.445Z,9.45
2022-08-17T18:09:35.685Z,8.13
2022-08-17T18:12:31.423Z,7.90
2022-08-17T18:15:03.777Z,7.57
2022-08-17T18:17:31.119Z,9.50
2022-08-17T18:19:58.077Z,10.18
2022-08-17T18:22:26.289Z,11.85
2022-08-17T18:24:58.248Z,9.15
2022-08-17T18:27:40.826Z,11.70
2022-08-17T18:30:13.813Z,11.82
2022-08-17T18:32:43.560Z,11.07
2022-08-17T18:35:10.353Z,10.10
2022-08-17T18:37:47.717Z,10.60
2022-08-17T18:40:17.581Z,10.20
2022-08-17T18:43:00.194Z,12.05
2022-08-17T18:45:34.779Z,14.88
2022-08-17T18:48:02.865Z,14.52
2022-08-17T18:53:34.888Z,10.90
2022-08-17T18:56:20.315Z,10.98
2022-08-17T18:59:21.652Z,11.90
2022-08-17T19:02:11.610Z,13.07
2022-08-17T19:05:01.663Z,13.18
2022-08-17T19:07:39.283Z,13.65
2022-08-17T19:10:14.991Z,16.10
2022-08-17T19:13:12.697Z,12.13
2022-08-17T19:16:05.303Z,12.25
2022-08-17T19:18:42.801Z,12.35
2022-08-17T19:21:29.698Z,12.55
2022-08-17T19:24:10.797Z,13.75
2022-08-17T19:26:54.826Z,17.00
2022-08-17T19:29:50.736Z,15.45
2022-08-17T19:32:24.439Z,13.38
2022-08-17T19:34:52.232Z,13.65
2022-08-17T19:37:36.855Z,13.07
2022-08-17T19:40:51.098Z,12.38
2022-08-17T19:43:35.461Z,12.13
2022-08-17T19:46:11.985Z,10.20
2022-08-17T19:49:16.320Z,9.60
2022-08-17T19:52:26.137Z,11.23
2022-08-17T19:54:59.697Z,9.98
2022-08-17T19:58:17.936Z,9.68
2022-08-17T20:00:50.933Z,11.88
2022-08-17T20:03:35.421Z,9.52
2022-08-17T20:06:13.088Z,9.23
2022-08-17T20:08:59.532Z,12.60
2022-08-17T20:11:45.467Z,10.10
2022-08-17T20:14:15.669Z,9.07
2022-08-17T20:16:42.558Z,10.32
2022-08-17T20:19:44.662Z,10.25
2022-08-17T20:22:20.680Z,11.68
2022-08-17T20:25:31.883Z,10.57
2022-08-17T20:28:35.241Z,11.85
2022-08-17T20:31:03.020Z,14.45
2022-08-17T20:33:33.746Z,12.80
2022-08-17T20:36:20.557Z,10.85
2022-08-17T20:38:58.829Z,10.48
2022-08-17T20:41:28.848Z,10.85
2022-08-17T20:43:59.027Z,11.82
2022-08-17T20:46:34.843Z,9.30
2022-08-17T20:49:49.834Z,11.10
2022-08-17T20:52:48.480Z,9.93
2022-08-17T20:55:33.826Z,10.18
2022-08-17T20:58:15.830Z,14.57
2022-08-17T21:00:56.437Z,11.32
2022-08-17T21:03:23.718Z,12.93
2022-08-17T21:06:00.422Z,13.10
2022-08-17T21:08:43.735Z,10.45
2022-08-17T21:11:57.001Z,11.27
2022-08-17T21:14:33.637Z,10.13
2022-08-17T21:17:36.464Z,9.27
2022-08-17T21:20:23.931Z,10.85
2022-08-17T21:23:09.271Z,12.60
2022-08-17T21:25:57.748Z,10.40
2022-08-17T21:29:00.359Z,11.45
2022-08-17T21:31:28.354Z,12.32
2022-08-17T21:34:24.483Z,11.18
2022-08-17T21:36:51.534Z,11.20
2022-08-17T21:39:33.045Z,11.13
2022-08-17T21:42:00.753Z,9.95
2022-08-17T21:44:36.845Z,12.55
2022-08-17T21:47:25.925Z,10.63
2022-08-17T21:49:54.955Z,10.35
2022-08-17T21:52:26.873Z,10.43
2022-08-17T21:55:02.402Z,10.82
2022-08-17T21:57:30.058Z,14.68
2022-08-17T22:00:00.750Z,11.13
2022-08-17T22:02:32.341Z,12.20
2022-08-17T22:05:08.459Z,10.50
2022-08-17T22:07:35.249Z,16.13
2022-08-17T22:10:02.385Z,11.50
2022-08-17T22:12:29.848Z,11.40
2022-08-17T22:15:04.107Z,12.70
2022-08-17T22:17:45.159Z,9.95
2022-08-17T22:20:19.088Z,11.95
2022-08-17T22:23:04.277Z,13.82
2022-08-17T22:25:35.915Z,11.10
2022-08-17T22:28:11.463Z,15.35
2022-08-17T22:30:39.532Z,12.05
2022-08-17T22:36:12.645Z,10.75
2022-08-17T22:38:41.353Z,13.60
2022-08-17T22:41:31.758Z,11.98
2022-08-17T22:44:31.629Z,10.30
2022-08-17T22:47:00.664Z,13.23
2022-08-17T22:49:34.141Z,12.20
2022-08-17T22:52:32.365Z,12.13
2022-08-17T22:55:33.307Z,14.52
2022-08-17T22:58:19.970Z,10.80
2022-08-17T23:00:49.030Z,11.63
2022-08-17T23:03:25.559Z,11.05
2022-08-17T23:06:06.221Z,14.68
2022-08-17T23:08:35.703Z,10.57
2022-08-17T23:11:02.877Z,10.68
2022-08-17T23:13:31.949Z,10.82
2022-08-17T23:15:58.792Z,11.52
2022-08-17T23:18:27.333Z,11.65
2022-08-17T23:20:54.445Z,11.10
2022-08-17T23:23:23.890Z,11.20
2022-08-17T23:25:50.943Z,10.52
2022-08-17T23:28:18.088Z,12.95
2022-08-17T23:30:48.448Z,13.10
2022-08-17T23:33:30.411Z,22.70
2022-08-17T23:35:58.838Z,12.23
2022-08-17T23:38:29.275Z,12.00
2022-08-17T23:40:59.984Z,11.43
2022-08-17T23:43:28.333Z,11.63
2022-08-17T23:45:57.913Z,11.68
2022-08-17T23:48:32.573Z,11.10
2022-08-17T23:51:05.824Z,14.25
2022-08-17T23:53:34.880Z,15.48
2022-08-17T23:56:09.857Z,11.38
2022-08-17T23:58:41.999Z,10.80
